Time;durP1;ratioP1;P1;durP2;ratioP2;P2;SDS_P1;SDS_P2;PMS_P1;PMS_P2;Temp;Humidity;BMP_temperature;BMP_pressure;BME280_temperature;BME280_humidity;BME280_pressure;Samples;Min_cycle;Max_cycle;Signal;HPM_P1;HPM_P2
2022/07/01 00:01:29;;;;;;;5.20;1.60;;;11.30;99.90;;;;;;5093298;28;20478;-58
2022/07/01 00:03:54;;;;;;;6.97;1.70;;;11.30;99.90;;;;;;5092901;28;20028;-58
2022/07/01 00:06:21;;;;;;;7.03;1.83;;;11.30;99.90;;;;;;5093284;28;20024;-58
2022/07/01 00:08:47;;;;;;;7.57;2.08;;;11.30;99.90;;;;;;5094711;28;20024;-58
2022/07/01 00:11:13;;;;;;;7.40;2.22;;;11.20;99.90;;;;;;5093758;28;20052;-58
2022/07/01 00:13:39;;;;;;;8.00;2.15;;;11.30;99.90;;;;;;5092955;28;20016;-58
2022/07/01 00:16:04;;;;;;;4.85;1.80;;;11.30;99.90;;;;;;5092995;28;20023;-58
2022/07/01 00:18:30;;;;;;;4.18;1.60;;;11.30;99.90;;;;;;5092145;28;20081;-58
2022/07/01 00:20:56;;;;;;;4.88;2.03;;;11.30;99.90;;;;;;5093588;28;20054;-55
2022/07/01 00:23:22;;;;;;;4.82;1.80;;;11.30;99.90;;;;;;5092444;28;20040;-58
2022/07/01 00:25:48;;;;;;;5.93;2.17;;;11.20;99.90;;;;;;5091215;28;20029;-58
2022/07/01 00:28:14;;;;;;;7.85;2.33;;;11.20;99.90;;;;;;5091582;28;20039;-58
2022/07/01 00:30:39;;;;;;;7.38;2.30;;;11.30;99.90;;;;;;5092791;28;20032;-58
2022/07/01 00:33:05;;;;;;;9.10;2.20;;;11.30;99.90;;;;;;5092797;28;20484;-58
2022/07/01 00:35:31;;;;;;;6.13;2.20;;;11.30;99.90;;;;;;5110269;28;20032;-58
2022/07/01 00:37:57;;;;;;;8.85;2.08;;;11.40;99.90;;;;;;5092414;28;20073;-58
2022/07/01 00:40:24;;;;;;;4.57;2.10;;;11.40;99.90;;;;;;5092346;28;20058;-58
2022/07/01 00:42:50;;;;;;;7.28;2.40;;;11.40;99.90;;;;;;5092010;28;20048;-58
2022/07/01 00:45:15;;;;;;;8.38;2.05;;;11.60;99.90;;;;;;5091586;28;20489;-58
2022/07/01 00:47:43;;;;;;;9.50;2.45;;;11.70;99.90;;;;;;5094778;28;20020;-58
2022/07/01 00:50:12;;;;;;;7.55;2.55;;;11.70;99.90;;;;;;5090407;28;20626;-58
2022/07/01 00:52:39;;;;;;;6.45;2.58;;;11.70;99.90;;;;;;5092686;28;20016;-58
2022/07/01 00:55:08;;;;;;;8.48;2.55;;;11.70;99.90;;;;;;5092238;28;20020;-58
2022/07/01 00:57:36;;;;;;;6.80;2.78;;;11.80;99.90;;;;;;5092266;28;20058;-58
2022/07/01 01:00:23;;;;;;;10.63;2.75;;;11.80;99.90;;;;;;5092659;28;20020;-58
2022/07/01 01:02:49;;;;;;;6.85;2.67;;;11.90;99.90;;;;;;5090070;28;20015;-58
2022/07/01 01:05:17;;;;;;;5.03;1.98;;;11.90;99.90;;;;;;5091055;28;20598;-58
2022/07/01 01:07:43;;;;;;;6.38;2.50;;;11.90;99.90;;;;;;5091958;28;20027;-58
2022/07/01 01:10:10;;;;;;;6.07;2.15;;;12.00;99.90;;;;;;5091947;28;20481;-58
2022/07/01 01:12:36;;;;;;;11.98;3.03;;;12.00;99.90;;;;;;5092481;28;20046;-58
2022/07/01 01:15:02;;;;;;;7.35;2.08;;;12.00;99.90;;;;;;5091831;28;20028;-58
2022/07/01 01:17:28;;;;;;;5.82;2.28;;;12.10;99.90;;;;;;5093755;28;20096;-58
2022/07/01 01:19:54;;;;;;;6.20;2.15;;;12.00;99.90;;;;;;5091448;28;20487;-58
2022/07/01 01:22:19;;;;;;;6.93;1.92;;;12.00;99.90;;;;;;5091638;28;20085;-58
2022/07/01 01:24:49;;;;;;;9.35;2.30;;;12.00;99.90;;;;;;5091986;28;20416;-58
2022/07/01 01:27:18;;;;;;;9.68;2.50;;;12.00;99.90;;;;;;5075774;28;20033;-58
2022/07/01 01:29:45;;;;;;;6.45;1.98;;;12.00;99.90;;;;;;5093387;28;20017;-58
2022/07/01 01:32:11;;;;;;;6.70;2.10;;;11.90;99.90;;;;;;5091874;28;20024;-58
2022/07/01 01:34:38;;;;;;;7.53;2.30;;;11.80;99.90;;;;;;5091337;28;20055;-58
2022/07/01 01:37:05;;;;;;;6.88;2.10;;;11.60;99.90;;;;;;5091685;28;20039;-58
2022/07/01 01:39:31;;;;;;;11.77;2.05;;;11.70;99.90;;;;;;5090005;28;20393;-58
2022/07/01 01:41:57;;;;;;;6.80;1.90;;;11.70;99.90;;;;;;5090840;28;20048;-58
2022/07/01 01:44:23;;;;;;;5.70;2.03;;;11.70;99.90;;;;;;5090792;28;20040;-58
2022/07/01 01:46:48;;;;;;;7.88;1.90;;;11.70;99.90;;;;;;5091113;28;20043;-58
2022/07/01 01:49:14;;;;;;;5.18;2.00;;;11.70;99.90;;;;;;5091263;28;20585;-58
2022/07/01 01:51:40;;;;;;;7.32;2.20;;;11.70;99.90;;;;;;5091208;28;20054;-58
2022/07/01 01:54:06;;;;;;;8.95;2.38;;;11.60;99.90;;;;;;5091304;28;20485;-58
2022/07/01 01:56:32;;;;;;;9.02;2.70;;;11.50;99.90;;;;;;5092911;28;20031;-58
2022/07/01 01:58:58;;;;;;;9.00;2.75;;;11.40;99.90;;;;;;5091212;28;20024;-58
2022/07/01 02:01:24;;;;;;;12.30;3.20;;;11.40;99.90;;;;;;5091063;28;20069;-58
2022/07/01 02:03:52;;;;;;;13.60;2.85;;;11.30;99.90;;;;;;5090395;28;20111;-58
2022/07/01 02:06:19;;;;;;;11.02;3.00;;;11.30;99.90;;;;;;5090967;28;20028;-58
2022/07/01 02:08:45;;;;;;;5.45;2.85;;;11.30;99.90;;;;;;5092718;28;20020;-57
2022/07/01 02:11:10;;;;;;;6.22;2.90;;;11.30;99.90;;;;;;5091544;28;20040;-58
2022/07/01 02:13:37;;;;;;;9.27;2.72;;;11.20;99.90;;;;;;5090739;28;20016;-58
2022/07/01 02:16:04;;;;;;;9.50;3.28;;;11.10;99.90;;;;;;5090303;28;20052;-58
2022/07/01 02:18:30;;;;;;;7.63;3.10;;;11.10;99.90;;;;;;5089401;28;20028;-58
2022/07/01 02:20:56;;;;;;;9.75;3.10;;;11.10;99.90;;;;;;5091355;28;20056;-58
2022/07/01 02:23:22;;;;;;;6.45;3.03;;;11.10;99.90;;;;;;5105799;28;20060;-58
2022/07/01 02:25:48;;;;;;;8.50;2.95;;;11.10;99.90;;;;;;5090408;28;20124;-58
2022/07/01 02:28:14;;;;;;;9.10;2.92;;;11.10;99.90;;;;;;5090291;28;20031;-58
2022/07/01 02:30:41;;;;;;;7.15;2.90;;;11.10;99.90;;;;;;5091105;28;20027;-58
2022/07/01 02:33:07;;;;;;;6.50;3.00;;;11.10;99.90;;;;;;5090232;28;20106;-58
2022/07/01 02:35:38;;;;;;;10.75;3.00;;;11.10;99.90;;;;;;5092280;28;20020;-58
2022/07/01 02:38:06;;;;;;;9.85;3.30;;;11.20;99.90;;;;;;5090433;28;20070;-58
2022/07/01 02:40:33;;;;;;;8.05;3.17;;;11.20;99.90;;;;;;5090223;28;20555;-57
2022/07/01 02:43:00;;;;;;;7.20;3.03;;;11.30;99.90;;;;;;5090253;28;20097;-57
2022/07/01 02:45:25;;;;;;;8.80;3.20;;;11.30;99.90;;;;;;5090343;28;20033;-58
2022/07/01 02:47:51;;;;;;;9.02;3.22;;;11.30;99.90;;;;;;5089558;28;20038;-58
2022/07/01 02:50:18;;;;;;;9.88;3.65;;;11.30;99.90;;;;;;5091729;28;20066;-58
2022/07/01 02:52:45;;;;;;;8.88;3.47;;;11.40;99.90;;;;;;5089973;28;20512;-58
2022/07/01 02:55:13;;;;;;;7.10;3.08;;;11.50;99.90;;;;;;5090098;28;20572;-58
2022/07/01 02:57:42;;;;;;;6.70;2.80;;;11.50;99.90;;;;;;5089049;28;20028;-57
2022/07/01 03:00:13;;;;;;;10.77;3.05;;;11.50;99.90;;;;;;5089395;28;20081;-58
2022/07/01 03:02:40;;;;;;;9.80;3.00;;;11.60;99.90;;;;;;5087559;28;20384;-58
2022/07/01 03:05:06;;;;;;;8.48;2.83;;;11.60;99.90;;;;;;5089807;28;20500;-58
2022/07/01 03:07:34;;;;;;;9.05;2.90;;;11.60;99.90;;;;;;5089801;28;20048;-58
2022/07/01 03:10:02;;;;;;;10.18;4.10;;;11.60;99.90;;;;;;5089911;28;20035;-58
2022/07/01 03:12:28;;;;;;;8.27;3.60;;;11.50;99.90;;;;;;5089961;28;20436;-58
2022/07/01 03:14:59;;;;;;;8.93;3.80;;;11.50;99.90;;;;;;5090207;28;20032;-61
2022/07/01 03:17:26;;;;;;;10.00;3.97;;;11.50;99.90;;;;;;5090024;28;20024;-58
2022/07/01 03:19:53;;;;;;;8.43;3.95;;;11.50;99.90;;;;;;5089914;28;20063;-58
2022/07/01 03:22:20;;;;;;;10.25;3.80;;;11.50;99.90;;;;;;5089639;28;20500;-58
2022/07/01 03:24:49;;;;;;;9.75;3.65;;;11.50;99.90;;;;;;5089480;28;20036;-58
2022/07/01 03:27:18;;;;;;;7.65;3.90;;;11.50;99.90;;;;;;5089397;28;20036;-58
2022/07/01 03:29:44;;;;;;;8.68;4.05;;;11.50;99.90;;;;;;5090954;28;20056;-58
2022/07/01 03:32:10;;;;;;;10.00;4.47;;;11.50;99.90;;;;;;5090334;28;20055;-57
2022/07/01 03:34:40;;;;;;;8.65;3.85;;;11.50;99.90;;;;;;5089684;28;20039;-58
2022/07/01 03:37:07;;;;;;;10.88;4.50;;;11.50;99.90;;;;;;5088240;28;20035;-58
2022/07/01 03:39:35;;;;;;;8.13;4.40;;;11.40;99.90;;;;;;5088189;28;20412;-58
2022/07/01 03:42:01;;;;;;;10.63;4.15;;;11.30;99.90;;;;;;5089489;28;20079;-58
2022/07/01 03:44:27;;;;;;;12.30;4.35;;;11.30;99.90;;;;;;5091625;28;20040;-58
2022/07/01 03:46:53;;;;;;;7.15;4.40;;;11.20;99.90;;;;;;5089447;28;20457;-58
2022/07/01 03:49:19;;;;;;;9.95;4.80;;;11.20;99.90;;;;;;5089721;28;20028;-58
2022/07/01 03:51:45;;;;;;;13.27;5.20;;;11.10;99.90;;;;;;5089946;28;20431;-58
2022/07/01 03:57:00;;;;;;;11.20;4.97;;;11.10;99.90;;;;;;5088017;28;20034;-58
2022/07/01 03:59:26;;;;;;;12.55;5.15;;;11.10;99.90;;;;;;5089773;28;20028;-58
2022/07/01 04:01:54;;;;;;;9.77;4.90;;;11.10;99.90;;;;;;5089587;28;20409;-57
2022/07/01 04:04:19;;;;;;;11.50;5.40;;;11.00;99.90;;;;;;5089402;28;20054;-58
2022/07/01 04:06:46;;;;;;;16.63;4.97;;;10.90;99.90;;;;;;5089849;28;20046;-58
2022/07/01 04:09:15;;;;;;;9.80;4.85;;;10.80;99.90;;;;;;5073569;28;20021;-58
2022/07/01 04:11:45;;;;;;;12.55;5.65;;;10.80;99.90;;;;;;5087189;28;20036;-58
2022/07/01 04:14:12;;;;;;;14.27;5.60;;;10.70;99.90;;;;;;5088014;28;20032;-58
2022/07/01 04:16:38;;;;;;;13.27;6.63;;;10.60;99.90;;;;;;5087873;28;20020;-58
2022/07/01 04:19:05;;;;;;;8.80;5.28;;;10.70;99.90;;;;;;5088786;28;20048;-58
2022/07/01 04:24:15;;;;;;;18.92;10.00;;;10.60;99.90;;;;;;5077193;28;20047;-58
2022/07/01 04:26:42;;;;;;;13.60;6.40;;;10.60;99.90;;;;;;5095109;28;20106;-58
2022/07/01 04:29:08;;;;;;;10.73;6.43;;;10.60;99.90;;;;;;5090981;28;20477;-58
2022/07/01 04:31:38;;;;;;;12.30;7.10;;;10.60;99.90;;;;;;5092583;28;20024;-58
2022/07/01 04:34:04;;;;;;;11.77;6.47;;;10.60;99.90;;;;;;5092711;28;20032;-58
2022/07/01 04:36:31;;;;;;;10.35;5.40;;;10.50;99.90;;;;;;5093237;28;20020;-58
2022/07/01 04:38:57;;;;;;;9.93;5.38;;;10.50;99.90;;;;;;5092944;28;20028;-58
2022/07/01 04:44:07;;;;;;;10.85;6.63;;;10.50;99.90;;;;;;5092276;28;20083;-58
2022/07/01 04:46:33;;;;;;;8.65;5.80;;;10.60;99.90;;;;;;5092660;28;20088;-58
2022/07/01 04:48:59;;;;;;;13.60;5.90;;;10.60;99.90;;;;;;5092459;28;20035;-58
2022/07/01 04:51:24;;;;;;;10.50;5.35;;;10.60;99.90;;;;;;5092499;28;20016;-58
2022/07/01 04:53:50;;;;;;;12.68;5.50;;;10.70;99.90;;;;;;5093179;28;20032;-58
2022/07/01 04:56:16;;;;;;;13.43;5.95;;;10.70;99.90;;;;;;5091912;28;20028;-58
2022/07/01 04:58:42;;;;;;;12.88;5.97;;;10.70;99.90;;;;;;5090247;28;20130;-58
2022/07/01 05:01:07;;;;;;;12.60;5.40;;;10.70;99.90;;;;;;5092100;28;20024;-58
2022/07/01 05:03:34;;;;;;;10.60;5.40;;;10.80;99.90;;;;;;5092412;28;20036;-58
2022/07/01 05:05:59;;;;;;;10.68;5.40;;;10.80;99.90;;;;;;5092310;28;20021;-58
2022/07/01 05:08:25;;;;;;;13.02;5.90;;;10.90;99.90;;;;;;5093886;28;20503;-58
2022/07/01 05:10:51;;;;;;;10.25;5.68;;;11.00;99.90;;;;;;5091916;28;20365;-58
2022/07/01 05:13:17;;;;;;;9.63;4.90;;;11.00;99.90;;;;;;5092005;28;20425;-58
2022/07/01 05:15:43;;;;;;;8.73;5.32;;;11.00;99.90;;;;;;5091940;28;20027;-58
2022/07/01 05:23:37;;;;;;;9.25;5.28;;;11.30;99.90;;;;;;5093206;28;20142;-57
2022/07/01 05:26:03;;;;;;;9.10;5.47;;;11.40;99.90;;;;;;5091805;28;20099;-58
2022/07/01 05:28:29;;;;;;;5.70;4.40;;;13.00;99.90;;;;;;5091585;28;20032;-57
2022/07/01 05:30:54;;;;;;;10.10;4.63;;;14.30;99.90;;;;;;5091158;28;20089;-58
2022/07/01 05:33:21;;;;;;;7.90;3.90;;;14.60;99.90;;;;;;5090308;28;20032;-58
2022/07/01 05:35:47;;;;;;;6.65;3.60;;;15.30;99.90;;;;;;5092956;28;20056;-57
2022/07/01 05:38:13;;;;;;;9.50;3.58;;;16.20;99.90;;;;;;5090569;28;20031;-58
2022/07/01 05:40:39;;;;;;;9.10;3.55;;;16.40;99.90;;;;;;5091433;28;20396;-58
2022/07/01 05:43:05;;;;;;;6.93;3.70;;;16.80;99.90;;;;;;5090927;28;20082;-58
2022/07/01 05:45:30;;;;;;;7.00;3.65;;;15.70;99.90;;;;;;5091479;28;20043;-58
2022/07/01 05:47:56;;;;;;;6.93;3.60;;;16.70;99.90;;;;;;5091851;28;20027;-58
2022/07/01 05:50:23;;;;;;;5.47;3.08;;;17.90;99.90;;;;;;5092987;28;20032;-58
2022/07/01 05:52:49;;;;;;;5.97;3.30;;;19.20;99.90;;;;;;5091465;28;20024;-58
2022/07/01 05:55:14;;;;;;;7.40;3.80;;;19.50;99.90;;;;;;5090740;28;20024;-58
2022/07/01 05:57:40;;;;;;;6.78;3.90;;;20.00;99.90;;;;;;5091260;28;20016;-58
2022/07/01 06:00:06;;;;;;;9.00;4.55;;;18.60;99.90;;;;;;5091300;28;20496;-58
2022/07/01 06:02:32;;;;;;;8.68;4.50;;;19.50;99.90;;;;;;5093018;28;20020;-58
2022/07/01 06:05:01;;;;;;;5.85;4.35;;;18.60;99.90;;;;;;5090884;28;20040;-58
2022/07/01 06:07:27;;;;;;;9.25;4.55;;;19.00;99.90;;;;;;5090759;28;20485;-58
2022/07/01 06:09:52;;;;;;;14.35;4.72;;;19.40;99.90;;;;;;5090453;28;20103;-58
2022/07/01 06:12:18;;;;;;;7.65;4.13;;;20.30;99.90;;;;;;5089921;28;20052;-58
2022/07/01 06:14:44;;;;;;;6.47;4.50;;;20.40;99.90;;;;;;5092562;28;20145;-59
2022/07/01 06:17:09;;;;;;;7.55;4.20;;;20.20;99.90;;;;;;5090932;28;20016;-58
2022/07/01 06:19:38;;;;;;;7.45;3.92;;;22.60;99.90;;;;;;5090737;28;20036;-58
2022/07/01 06:22:04;;;;;;;7.57;3.95;;;24.50;99.90;;;;;;5090943;28;20113;-58
2022/07/01 06:24:30;;;;;;;8.68;3.97;;;22.80;99.90;;;;;;5090151;28;20036;-59
2022/07/01 06:26:56;;;;;;;9.32;3.28;;;23.40;99.90;;;;;;5091314;28;20024;-58
2022/07/01 06:29:21;;;;;;;4.53;2.92;;;22.80;99.90;;;;;;5090941;28;20120;-59
2022/07/01 06:31:47;;;;;;;9.55;3.22;;;24.80;99.90;;;;;;5090454;28;20051;-58
2022/07/01 06:34:13;;;;;;;6.22;3.10;;;23.20;99.90;;;;;;5090310;28;20027;-58
2022/07/01 06:36:38;;;;;;;5.93;2.92;;;23.60;99.90;;;;;;5090769;28;20024;-58
2022/07/01 06:39:04;;;;;;;8.70;2.70;;;23.90;99.90;;;;;;5090167;28;20025;-58
2022/07/01 06:41:30;;;;;;;5.70;2.50;;;25.70;99.90;;;;;;5091295;28;20044;-59
2022/07/01 06:44:00;;;;;;;6.22;2.70;;;26.00;99.90;;;;;;5090064;28;20036;-59
2022/07/01 06:46:27;;;;;;;6.53;3.03;;;26.40;97.80;;;;;;5090755;28;20038;-58
2022/07/01 06:48:53;;;;;;;5.25;2.97;;;26.40;97.20;;;;;;5090098;28;20438;-59
2022/07/01 06:51:19;;;;;;;5.22;2.80;;;24.60;97.10;;;;;;5089013;28;20115;-58
2022/07/01 06:53:46;;;;;;;6.53;2.83;;;26.70;96.80;;;;;;5091403;28;20035;-58
2022/07/01 06:56:13;;;;;;;6.63;2.90;;;28.40;96.00;;;;;;5088713;28;20028;-58
2022/07/01 06:58:39;;;;;;;8.68;3.30;;;27.00;93.90;;;;;;5089206;28;20027;-59
2022/07/01 07:01:05;;;;;;;7.70;3.42;;;26.60;94.50;;;;;;5088773;28;20842;-58
2022/07/01 07:03:32;;;;;;;7.47;3.03;;;27.40;97.30;;;;;;5089938;28;20040;-59
2022/07/01 07:06:00;;;;;;;10.82;3.17;;;29.50;94.70;;;;;;5091012;28;20027;-58
2022/07/01 07:08:26;;;;;;;6.85;2.92;;;31.00;91.40;;;;;;5090112;28;20028;-58
2022/07/01 07:10:52;;;;;;;6.93;2.97;;;30.50;92.40;;;;;;5089864;28;20472;-59
2022/07/01 07:13:18;;;;;;;5.40;2.88;;;30.30;91.00;;;;;;5088638;28;20035;-58
2022/07/01 07:15:44;;;;;;;5.85;2.78;;;31.20;90.90;;;;;;5090171;28;20115;-58
2022/07/01 07:18:09;;;;;;;5.20;2.45;;;32.80;89.50;;;;;;5089887;28;20032;-58
2022/07/01 07:20:35;;;;;;;7.43;2.50;;;30.80;83.30;;;;;;5091976;28;20020;-59
2022/07/01 07:23:02;;;;;;;8.25;2.67;;;27.40;90.40;;;;;;5089720;28;20039;-58
2022/07/01 07:25:27;;;;;;;5.57;2.63;;;29.40;88.60;;;;;;5089516;28;20062;-59
2022/07/01 07:27:53;;;;;;;6.28;2.50;;;29.50;89.40;;;;;;5090089;28;20473;-58
2022/07/01 07:30:19;;;;;;;6.68;2.70;;;29.40;90.00;;;;;;5088437;28;20492;-59
2022/07/01 07:32:45;;;;;;;6.97;2.80;;;29.70;88.70;;;;;;5091460;28;20481;-58
2022/07/01 07:35:11;;;;;;;6.55;2.92;;;31.00;88.70;;;;;;5088581;28;20114;-59
2022/07/01 07:37:37;;;;;;;5.40;2.10;;;30.00;87.30;;;;;;5089319;28;20393;-58
2022/07/01 07:40:06;;;;;;;5.88;2.03;;;29.40;88.90;;;;;;5090099;28;20055;-58
2022/07/01 07:42:32;;;;;;;8.27;2.63;;;32.10;85.60;;;;;;5089493;28;20055;-58
2022/07/01 07:44:58;;;;;;;5.35;2.47;;;29.30;88.80;;;;;;5089878;28;20065;-58
2022/07/01 07:47:24;;;;;;;5.65;2.67;;;30.30;84.20;;;;;;5091422;28;20103;-58
2022/07/01 07:49:50;;;;;;;4.88;2.15;;;31.20;82.50;;;;;;5089437;28;20042;-58
2022/07/01 07:52:16;;;;;;;3.42;1.90;;;29.70;84.20;;;;;;5089235;28;20028;-58
2022/07/01 07:54:41;;;;;;;6.25;1.77;;;30.40;85.10;;;;;;5093633;28;20545;-58
2022/07/01 07:57:07;;;;;;;5.22;1.90;;;28.90;83.50;;;;;;5093587;28;20138;-58
2022/07/01 07:59:34;;;;;;;4.22;1.80;;;33.10;82.80;;;;;;5095451;28;20032;-58
2022/07/01 08:02:00;;;;;;;4.30;1.60;;;29.50;85.00;;;;;;5091918;28;20035;-59
2022/07/01 08:04:25;;;;;;;4.28;1.48;;;29.40;84.30;;;;;;5091844;28;20044;-58
2022/07/01 08:06:51;;;;;;;3.45;1.42;;;27.60;88.80;;;;;;5093352;28;20032;-58
2022/07/01 08:09:18;;;;;;;4.43;1.20;;;28.20;86.60;;;;;;5091994;28;20444;-58
2022/07/01 08:11:44;;;;;;;4.50;2.00;;;28.20;86.00;;;;;;5095228;28;20023;-58
2022/07/01 08:14:10;;;;;;;4.07;1.55;;;27.80;88.70;;;;;;5091866;28;20032;-58
2022/07/01 08:16:36;;;;;;;3.53;1.17;;;28.90;85.60;;;;;;5093210;28;20024;-58
2022/07/01 08:19:02;;;;;;;3.35;1.40;;;27.30;84.70;;;;;;5093076;28;20032;-58
2022/07/01 08:21:29;;;;;;;3.70;1.40;;;27.40;85.50;;;;;;5092706;28;20020;-58
2022/07/01 08:23:54;;;;;;;2.75;1.10;;;29.10;83.90;;;;;;5093679;28;20123;-58
2022/07/01 08:26:21;;;;;;;4.55;1.27;;;32.20;81.10;;;;;;5094293;28;20557;-58
2022/07/01 08:28:47;;;;;;;3.45;1.15;;;33.30;81.00;;;;;;5092866;28;20028;-58
2022/07/01 08:31:13;;;;;;;3.80;1.20;;;32.90;76.30;;;;;;5093150;28;20046;-58
2022/07/01 08:33:40;;;;;;;3.65;1.30;;;31.10;79.30;;;;;;5092710;28;20070;-58
2022/07/01 08:36:07;;;;;;;2.80;1.10;;;32.40;78.60;;;;;;5092513;28;20500;-59
2022/07/01 08:38:34;;;;;;;3.88;1.33;;;31.40;78.00;;;;;;5094652;28;20404;-58
2022/07/01 08:41:01;;;;;;;3.28;1.27;;;30.40;81.30;;;;;;5092349;28;20051;-58
2022/07/01 08:43:27;;;;;;;3.05;1.25;;;32.40;78.60;;;;;;5092381;28;20165;-58
2022/07/01 08:45:53;;;;;;;3.03;1.20;;;33.10;76.70;;;;;;5092431;28;20131;-58
2022/07/01 08:48:18;;;;;;;3.72;1.15;;;33.70;78.40;;;;;;5091519;28;20393;-58
2022/07/01 08:50:44;;;;;;;4.50;1.55;;;33.20;78.80;;;;;;5094123;28;20086;-58
2022/07/01 08:53:11;;;;;;;3.67;1.30;;;34.80;75.70;;;;;;5091006;28;20028;-58
2022/07/01 08:58:23;;;;;;;2.65;1.20;;;31.70;75.00;;;;;;5092575;28;20035;-58
2022/07/01 09:00:49;;;;;;;4.40;1.20;;;33.40;73.50;;;;;;5092426;28;20052;-58
2022/07/01 09:03:15;;;;;;;3.55;1.00;;;36.70;73.50;;;;;;5091987;28;20078;-58
2022/07/01 09:05:52;;;;;;;2.90;1.40;;;32.90;74.10;;;;;;5088985;28;20035;-58
2022/07/01 09:08:18;;;;;;;1.70;1.15;;;32.80;74.00;;;;;;5092922;28;20094;-58
2022/07/01 09:10:44;;;;;;;4.15;1.05;;;31.60;76.40;;;;;;5092048;28;20022;-58
2022/07/01 09:13:12;;;;;;;3.40;1.20;;;31.60;76.30;;;;;;5091905;28;20081;-58
2022/07/01 09:15:40;;;;;;;2.03;1.02;;;35.20;74.10;;;;;;5092254;28;20024;-57
2022/07/01 09:18:16;;;;;;;3.60;1.30;;;31.90;75.50;;;;;;5091713;28;20131;-58
2022/07/01 09:20:48;;;;;;;2.42;1.10;;;27.30;81.60;;;;;;5089859;28;20031;-57
2022/07/01 09:23:16;;;;;;;3.40;1.20;;;26.90;84.10;;;;;;5091312;28;20028;-58
2022/07/01 09:25:45;;;;;;;4.03;1.33;;;26.10;86.40;;;;;;5091620;28;20531;-58
2022/07/01 09:28:22;;;;;;;1.77;1.10;;;27.10;87.00;;;;;;5090391;28;20071;-58
2022/07/01 09:30:50;;;;;;;3.25;1.25;;;26.90;89.30;;;;;;5089860;28;20401;-58
2022/07/01 09:33:19;;;;;;;2.53;1.20;;;28.80;84.70;;;;;;5090446;28;20024;-58
2022/07/01 09:35:50;;;;;;;2.20;1.05;;;31.80;84.50;;;;;;5093809;28;20020;-57
2022/07/01 09:38:24;;;;;;;2.53;1.20;;;32.50;80.60;;;;;;5091014;28;20032;-57
2022/07/01 09:41:00;;;;;;;4.30;1.10;;;31.40;74.80;;;;;;5091355;28;20017;-57
2022/07/01 09:43:28;;;;;;;3.70;1.10;;;31.40;76.80;;;;;;5091211;28;20028;-58
2022/07/01 09:45:57;;;;;;;3.72;1.20;;;29.60;81.30;;;;;;5091361;28;20042;-57
2022/07/01 09:48:26;;;;;;;3.65;1.30;;;30.60;77.90;;;;;;5091437;28;20107;-58
2022/07/01 09:50:51;;;;;;;2.53;1.00;;;31.50;78.00;;;;;;5092525;28;20408;-58
2022/07/01 09:53:18;;;;;;;4.03;1.13;;;29.10;85.40;;;;;;5091987;28;20024;-57
2022/07/01 09:55:44;;;;;;;2.63;1.15;;;29.90;83.80;;;;;;5091112;28;20070;-58
2022/07/01 09:58:10;;;;;;;2.10;0.90;;;31.20;83.30;;;;;;5090896;28;20488;-58
2022/07/01 10:00:37;;;;;;;3.33;1.10;;;29.30;81.00;;;;;;5091156;28;20020;-58
2022/07/01 10:03:05;;;;;;;3.00;0.98;;;29.80;79.00;;;;;;5090694;28;20028;-58
2022/07/01 10:05:36;;;;;;;3.33;1.00;;;31.10;79.10;;;;;;5092692;28;20050;-57
2022/07/01 10:08:23;;;;;;;2.42;0.95;;;29.30;79.60;;;;;;5089982;28;20101;-58
2022/07/01 10:11:10;;;;;;;1.90;1.10;;;32.00;82.50;;;;;;5089289;28;20024;-58
2022/07/01 10:13:36;;;;;;;2.13;0.90;;;31.40;78.10;;;;;;5090538;28;20111;-58
2022/07/01 10:16:03;;;;;;;3.50;1.00;;;26.00;83.20;;;;;;5091013;28;20064;-58
2022/07/01 10:18:29;;;;;;;2.58;1.08;;;27.20;86.30;;;;;;5090871;28;20024;-58
2022/07/01 10:20:57;;;;;;;3.13;1.08;;;26.90;82.70;;;;;;5091519;28;20028;-59
2022/07/01 10:23:28;;;;;;;2.40;1.00;;;26.80;84.00;;;;;;5092565;28;20062;-58
2022/07/01 10:26:01;;;;;;;1.98;1.00;;;26.60;82.90;;;;;;5090919;28;20477;-57
2022/07/01 10:28:41;;;;;;;4.22;1.00;;;25.70;86.90;;;;;;5090457;28;20020;-58
2022/07/01 10:31:17;;;;;;;2.67;1.00;;;25.10;88.00;;;;;;5090140;28;20623;-58
2022/07/01 10:33:49;;;;;;;2.92;1.00;;;25.60;84.70;;;;;;5090490;28;20076;-58
2022/07/01 10:36:31;;;;;;;1.75;0.80;;;26.40;86.20;;;;;;5075003;28;20035;-57
2022/07/01 10:39:03;;;;;;;2.03;0.73;;;26.70;83.60;;;;;;5089024;28;20073;-57
2022/07/01 10:41:52;;;;;;;1.95;0.80;;;26.70;84.60;;;;;;5090354;28;20074;-58
2022/07/01 10:44:17;;;;;;;1.50;0.80;;;27.30;91.20;;;;;;5087241;28;20388;-58
2022/07/01 10:46:57;;;;;;;3.08;0.85;;;25.90;82.60;;;;;;5088804;28;20051;-57
2022/07/01 10:49:38;;;;;;;2.00;0.85;;;25.40;85.20;;;;;;5088744;28;20389;-57
2022/07/01 10:52:09;;;;;;;2.75;0.80;;;25.90;83.30;;;;;;5090325;28;20476;-58
2022/07/01 10:54:39;;;;;;;1.85;0.80;;;27.20;82.80;;;;;;5090559;28;20055;-57
2022/07/01 10:57:19;;;;;;;2.53;0.90;;;27.20;94.70;;;;;;5090140;28;20024;-57
2022/07/01 10:59:59;;;;;;;2.92;0.73;;;28.40;85.20;;;;;;5087872;28;20074;-57
2022/07/01 11:02:26;;;;;;;1.67;0.90;;;28.70;82.00;;;;;;5089882;28;20016;-57
2022/07/01 11:04:58;;;;;;;1.73;0.90;;;28.20;82.00;;;;;;5089953;28;20047;-58
2022/07/01 11:07:25;;;;;;;2.65;0.82;;;25.90;83.80;;;;;;5090456;28;20026;-57
2022/07/01 11:09:52;;;;;;;1.10;0.80;;;26.10;82.00;;;;;;5090016;28;20040;-57
2022/07/01 11:12:17;;;;;;;3.17;0.90;;;25.70;81.10;;;;;;5088741;28;20028;-57
2022/07/01 11:14:43;;;;;;;2.97;0.90;;;25.90;82.00;;;;;;5091709;28;20527;-57
2022/07/01 11:17:10;;;;;;;1.92;1.00;;;25.30;82.60;;;;;;5089897;28;20507;-58
2022/07/01 11:19:36;;;;;;;3.45;1.17;;;26.60;80.20;;;;;;5089836;28;20031;-57
2022/07/01 11:22:05;;;;;;;3.83;1.00;;;25.90;83.90;;;;;;5090228;28;20028;-57
2022/07/01 11:24:30;;;;;;;2.50;0.75;;;24.60;89.70;;;;;;5088307;28;20044;-58
2022/07/01 11:27:08;;;;;;;1.77;0.77;;;25.90;90.70;;;;;;5090780;28;20030;-58
2022/07/01 11:29:34;;;;;;;2.30;0.90;;;26.50;93.00;;;;;;5094208;28;20024;-58
2022/07/01 11:32:00;;;;;;;1.65;0.82;;;26.00;82.20;;;;;;5094365;28;20560;-57
2022/07/01 11:34:29;;;;;;;2.22;0.90;;;27.20;84.20;;;;;;5093756;28;20036;-57
2022/07/01 11:39:43;;;;;;;2.67;1.00;;;27.90;90.00;;;;;;5094016;28;20058;-57
2022/07/01 11:42:11;;;;;;;2.58;0.95;;;28.70;86.50;;;;;;5093571;28;20139;-57
2022/07/01 11:44:41;;;;;;;3.15;1.00;;;27.70;84.50;;;;;;5095321;28;20036;-57
2022/07/01 11:47:09;;;;;;;1.77;0.90;;;28.30;92.70;;;;;;5093582;28;20730;-57
2022/07/01 11:49:46;;;;;;;3.45;0.90;;;27.60;81.30;;;;;;5093844;28;20030;-58
2022/07/01 11:52:12;;;;;;;4.30;1.00;;;26.80;81.50;;;;;;5093758;28;20024;-58
2022/07/01 11:54:40;;;;;;;2.88;1.10;;;28.20;88.90;;;;;;5093441;28;20031;-58
2022/07/01 11:57:13;;;;;;;1.50;0.90;;;27.70;80.90;;;;;;5093179;28;21004;-57
2022/07/01 11:59:39;;;;;;;;;;;26.50;80.00;;;;;;5095827;28;20020;-57
2022/07/01 12:02:06;;;;;;;2.13;0.88;;;28.10;83.80;;;;;;5093414;28;19904;-58
2022/07/01 12:04:32;;;;;;;3.92;1.20;;;26.20;82.10;;;;;;5091804;28;20028;-57
2022/07/01 12:06:59;;;;;;;2.80;1.08;;;24.60;84.70;;;;;;5091634;28;20027;-58
2022/07/01 12:09:26;;;;;;;2.80;0.80;;;24.40;85.50;;;;;;5093402;28;20028;-57
2022/07/01 12:11:52;;;;;;;2.45;1.00;;;24.60;85.40;;;;;;5094410;28;20024;-58
2022/07/01 12:14:25;;;;;;;1.83;0.80;;;25.10;86.50;;;;;;5094442;28;20039;-57
2022/07/01 12:16:57;;;;;;;1.73;0.88;;;24.60;82.10;;;;;;5093110;28;20024;-57
2022/07/01 12:19:43;;;;;;;2.30;1.05;;;25.50;83.60;;;;;;5093109;28;20504;-57
2022/07/01 12:22:11;;;;;;;3.00;1.00;;;26.40;81.80;;;;;;5092855;28;20421;-57
2022/07/01 12:24:37;;;;;;;3.60;0.93;;;24.60;82.30;;;;;;5093098;28;20503;-58
2022/07/01 12:27:07;;;;;;;2.85;1.00;;;26.80;83.70;;;;;;5092476;28;20080;-57
2022/07/01 12:29:45;;;;;;;3.45;1.00;;;26.70;84.10;;;;;;5095106;28;20104;-57
2022/07/01 12:32:17;;;;;;;3.45;1.02;;;26.80;81.50;;;;;;5091583;28;20066;-58
2022/07/01 12:34:54;;;;;;;2.88;1.00;;;27.60;82.00;;;;;;5092741;28;20066;-57
2022/07/01 12:37:30;;;;;;;0.90;0.75;;;27.60;78.30;;;;;;5092679;28;20020;-58
2022/07/01 12:40:03;;;;;;;2.13;1.10;;;25.70;78.80;;;;;;5091463;28;20039;-58
2022/07/01 12:42:34;;;;;;;1.80;0.90;;;27.20;82.60;;;;;;5090652;28;20045;-58
2022/07/01 12:45:06;;;;;;;1.27;0.90;;;27.90;82.20;;;;;;5093320;28;20039;-58
2022/07/01 12:47:35;;;;;;;2.10;1.00;;;28.00;79.10;;;;;;5093158;28;20025;-58
2022/07/01 12:50:24;;;;;;;4.05;1.10;;;28.90;79.50;;;;;;5092504;28;20020;-58
2022/07/01 12:53:10;;;;;;;3.13;0.98;;;27.60;81.80;;;;;;5092190;28;20111;-58
2022/07/01 12:55:38;;;;;;;2.25;0.93;;;27.20;80.50;;;;;;5091949;28;20039;-58
2022/07/01 12:58:15;;;;;;;2.15;1.10;;;27.00;83.90;;;;;;5092316;28;20031;-58
2022/07/01 13:00:43;;;;;;;2.95;0.90;;;26.60;81.40;;;;;;5092667;28;20069;-57
2022/07/01 13:03:09;;;;;;;3.30;1.00;;;26.50;82.50;;;;;;5092354;28;20036;-57
2022/07/01 13:05:36;;;;;;;2.65;0.90;;;25.90;82.90;;;;;;5094472;28;20032;-58
2022/07/01 13:08:03;;;;;;;1.30;0.70;;;26.80;81.00;;;;;;5091880;28;20032;-57